sensor_id;sensor_type;location;lat;lon;timestamp;P1;durP1;ratioP1;P2;durP2;ratioP2
29200;SDS011;16244;51.956;12.980;2023-11-19T00:00:35;3.40;;;3.00;;
29200;SDS011;16244;51.956;12.980;2023-11-19T00:03:03;2.40;;;2.30;;
29200;SDS011;16244;51.956;12.980;2023-11-19T00:05:31;3.30;;;3.20;;
29200;SDS011;16244;51.956;12.980;2023-11-19T00:07:58;3.10;;;3.00;;
29200;SDS011;16244;51.956;12.980;2023-11-19T00:10:26;2.63;;;2.50;;
29200;SDS011;16244;51.956;12.980;2023-11-19T00:12:53;2.40;;;2.30;;
29200;SDS011;16244;51.956;12.980;2023-11-19T00:15:22;2.87;;;2.83;;
29200;SDS011;16244;51.956;12.980;2023-11-19T00:17:52;6.10;;;2.20;;
29200;SDS011;16244;51.956;12.980;2023-11-19T00:20:20;2.20;;;2.00;;
29200;SDS011;16244;51.956;12.980;2023-11-19T00:22:48;3.17;;;2.97;;
29200;SDS011;16244;51.956;12.980;2023-11-19T00:25:18;2.63;;;2.53;;
29200;SDS011;16244;51.956;12.980;2023-11-19T00:27:45;2.63;;;2.33;;
29200;SDS011;16244;51.956;12.980;2023-11-19T00:30:12;2.33;;;2.23;;
29200;SDS011;16244;51.956;12.980;2023-11-19T00:32:41;2.90;;;2.83;;
29200;SDS011;16244;51.956;12.980;2023-11-19T00:35:10;2.27;;;2.00;;
29200;SDS011;16244;51.956;12.980;2023-11-19T00:37:39;1.93;;;1.93;;
29200;SDS011;16244;51.956;12.980;2023-11-19T00:40:08;2.43;;;2.23;;
29200;SDS011;16244;51.956;12.980;2023-11-19T00:42:37;2.30;;;2.30;;
29200;SDS011;16244;51.956;12.980;2023-11-19T00:45:04;2.17;;;2.07;;
29200;SDS011;16244;51.956;12.980;2023-11-19T00:47:34;6.00;;;2.30;;
29200;SDS011;16244;51.956;12.980;2023-11-19T00:50:02;2.93;;;2.83;;
29200;SDS011;16244;51.956;12.980;2023-11-19T00:52:31;1.63;;;1.60;;
29200;SDS011;16244;51.956;12.980;2023-11-19T00:54:59;2.60;;;2.50;;
29200;SDS011;16244;51.956;12.980;2023-11-19T00:57:26;3.07;;;3.00;;
29200;SDS011;16244;51.956;12.980;2023-11-19T00:59:54;2.77;;;2.67;;
29200;SDS011;16244;51.956;12.980;2023-11-19T01:02:21;2.10;;;2.10;;
29200;SDS011;16244;51.956;12.980;2023-11-19T01:04:49;2.23;;;2.23;;
29200;SDS011;16244;51.956;12.980;2023-11-19T01:07:16;2.90;;;2.70;;
29200;SDS011;16244;51.956;12.980;2023-11-19T01:09:45;2.70;;;2.27;;
29200;SDS011;16244;51.956;12.980;2023-11-19T01:12:13;2.30;;;2.30;;
29200;SDS011;16244;51.956;12.980;2023-11-19T01:14:40;2.40;;;2.30;;
29200;SDS011;16244;51.956;12.980;2023-11-19T01:17:08;2.80;;;2.70;;
29200;SDS011;16244;51.956;12.980;2023-11-19T01:19:35;2.80;;;2.70;;
29200;SDS011;16244;51.956;12.980;2023-11-19T01:22:03;2.87;;;2.70;;
29200;SDS011;16244;51.956;12.980;2023-11-19T01:24:30;3.00;;;2.90;;
29200;SDS011;16244;51.956;12.980;2023-11-19T01:26:59;3.27;;;3.17;;
29200;SDS011;16244;51.956;12.980;2023-11-19T01:29:27;3.17;;;3.00;;
29200;SDS011;16244;51.956;12.980;2023-11-19T01:31:54;2.50;;;2.30;;
29200;SDS011;16244;51.956;12.980;2023-11-19T01:34:21;3.10;;;2.90;;
29200;SDS011;16244;51.956;12.980;2023-11-19T01:36:49;3.50;;;3.30;;
29200;SDS011;16244;51.956;12.980;2023-11-19T01:39:21;3.00;;;2.83;;
29200;SDS011;16244;51.956;12.980;2023-11-19T01:41:54;2.40;;;2.37;;
29200;SDS011;16244;51.956;12.980;2023-11-19T01:44:22;2.80;;;2.67;;
29200;SDS011;16244;51.956;12.980;2023-11-19T01:46:50;7.07;;;2.77;;
29200;SDS011;16244;51.956;12.980;2023-11-19T01:49:18;3.57;;;2.97;;
29200;SDS011;16244;51.956;12.980;2023-11-19T01:51:46;3.40;;;3.20;;
29200;SDS011;16244;51.956;12.980;2023-11-19T01:54:15;2.90;;;2.77;;
29200;SDS011;16244;51.956;12.980;2023-11-19T01:56:42;2.73;;;2.63;;
29200;SDS011;16244;51.956;12.980;2023-11-19T01:59:10;3.03;;;2.60;;
29200;SDS011;16244;51.956;12.980;2023-11-19T02:01:41;2.80;;;2.70;;
29200;SDS011;16244;51.956;12.980;2023-11-19T02:04:09;3.23;;;2.93;;
29200;SDS011;16244;51.956;12.980;2023-11-19T02:06:38;2.87;;;2.77;;
29200;SDS011;16244;51.956;12.980;2023-11-19T02:09:08;2.80;;;2.70;;
29200;SDS011;16244;51.956;12.980;2023-11-19T02:11:36;2.30;;;2.30;;
29200;SDS011;16244;51.956;12.980;2023-11-19T02:14:06;2.40;;;2.30;;
29200;SDS011;16244;51.956;12.980;2023-11-19T02:16:33;2.90;;;2.70;;
29200;SDS011;16244;51.956;12.980;2023-11-19T02:19:02;3.73;;;2.20;;
29200;SDS011;16244;51.956;12.980;2023-11-19T02:21:32;3.00;;;2.90;;
29200;SDS011;16244;51.956;12.980;2023-11-19T02:23:59;2.33;;;2.23;;
29200;SDS011;16244;51.956;12.980;2023-11-19T02:26:28;2.60;;;2.50;;
29200;SDS011;16244;51.956;12.980;2023-11-19T02:29:02;3.17;;;3.07;;
29200;SDS011;16244;51.956;12.980;2023-11-19T02:31:29;2.90;;;2.80;;
29200;SDS011;16244;51.956;12.980;2023-11-19T02:33:57;3.23;;;3.13;;
29200;SDS011;16244;51.956;12.980;2023-11-19T02:36:26;3.23;;;2.13;;
29200;SDS011;16244;51.956;12.980;2023-11-19T02:38:54;2.40;;;2.20;;
29200;SDS011;16244;51.956;12.980;2023-11-19T02:41:21;3.07;;;2.33;;
29200;SDS011;16244;51.956;12.980;2023-11-19T02:43:49;2.40;;;2.30;;
29200;SDS011;16244;51.956;12.980;2023-11-19T02:46:18;2.50;;;2.40;;
29200;SDS011;16244;51.956;12.980;2023-11-19T02:48:46;2.30;;;2.30;;
29200;SDS011;16244;51.956;12.980;2023-11-19T02:51:13;2.70;;;1.93;;
29200;SDS011;16244;51.956;12.980;2023-11-19T02:53:41;2.90;;;2.80;;
29200;SDS011;16244;51.956;12.980;2023-11-19T02:56:10;2.60;;;2.50;;
29200;SDS011;16244;51.956;12.980;2023-11-19T02:58:45;3.00;;;2.90;;
29200;SDS011;16244;51.956;12.980;2023-11-19T03:01:14;2.33;;;2.23;;
29200;SDS011;16244;51.956;12.980;2023-11-19T03:03:55;2.63;;;2.53;;
29200;SDS011;16244;51.956;12.980;2023-11-19T03:06:24;2.37;;;2.33;;
29200;SDS011;16244;51.956;12.980;2023-11-19T03:08:51;2.70;;;2.60;;
29200;SDS011;16244;51.956;12.980;2023-11-19T03:11:19;3.00;;;2.90;;
29200;SDS011;16244;51.956;12.980;2023-11-19T03:13:47;3.93;;;3.27;;
29200;SDS011;16244;51.956;12.980;2023-11-19T03:16:14;3.43;;;3.33;;
29200;SDS011;16244;51.956;12.980;2023-11-19T03:18:44;2.17;;;2.17;;
29200;SDS011;16244;51.956;12.980;2023-11-19T03:21:11;8.50;;;2.73;;
29200;SDS011;16244;51.956;12.980;2023-11-19T03:23:39;2.47;;;2.40;;
29200;SDS011;16244;51.956;12.980;2023-11-19T03:26:07;3.07;;;2.80;;
29200;SDS011;16244;51.956;12.980;2023-11-19T03:28:35;2.67;;;2.57;;
29200;SDS011;16244;51.956;12.980;2023-11-19T03:31:04;2.40;;;2.30;;
29200;SDS011;16244;51.956;12.980;2023-11-19T03:33:34;7.93;;;2.77;;
29200;SDS011;16244;51.956;12.980;2023-11-19T03:36:03;2.97;;;2.87;;
29200;SDS011;16244;51.956;12.980;2023-11-19T03:38:31;2.60;;;2.40;;
29200;SDS011;16244;51.956;12.980;2023-11-19T03:40:58;3.00;;;2.90;;
29200;SDS011;16244;51.956;12.980;2023-11-19T03:43:26;2.87;;;2.70;;
29200;SDS011;16244;51.956;12.980;2023-11-19T03:45:53;3.40;;;3.30;;
29200;SDS011;16244;51.956;12.980;2023-11-19T03:48:21;3.40;;;3.20;;
29200;SDS011;16244;51.956;12.980;2023-11-19T03:50:48;2.63;;;2.50;;
29200;SDS011;16244;51.956;12.980;2023-11-19T03:53:17;3.23;;;3.00;;
29200;SDS011;16244;51.956;12.980;2023-11-19T03:55:45;3.10;;;2.90;;
29200;SDS011;16244;51.956;12.980;2023-11-19T03:58:12;3.27;;;3.03;;
29200;SDS011;16244;51.956;12.980;2023-11-19T04:00:40;3.20;;;3.00;;
29200;SDS011;16244;51.956;12.980;2023-11-19T04:03:07;3.23;;;3.13;;
29200;SDS011;16244;51.956;12.980;2023-11-19T04:05:35;3.60;;;3.40;;
29200;SDS011;16244;51.956;12.980;2023-11-19T04:08:02;3.50;;;3.27;;
29200;SDS011;16244;51.956;12.980;2023-11-19T04:10:31;5.03;;;3.50;;
29200;SDS011;16244;51.956;12.980;2023-11-19T04:12:59;3.20;;;3.00;;
29200;SDS011;16244;51.956;12.980;2023-11-19T04:15:27;2.70;;;2.60;;
29200;SDS011;16244;51.956;12.980;2023-11-19T04:17:54;2.03;;;1.93;;
29200;SDS011;16244;51.956;12.980;2023-11-19T04:20:22;3.13;;;3.03;;
29200;SDS011;16244;51.956;12.980;2023-11-19T04:22:50;3.40;;;3.20;;
29200;SDS011;16244;51.956;12.980;2023-11-19T04:25:18;3.07;;;2.97;;
29200;SDS011;16244;51.956;12.980;2023-11-19T04:27:47;3.50;;;3.33;;
29200;SDS011;16244;51.956;12.980;2023-11-19T04:30:14;3.30;;;3.20;;
29200;SDS011;16244;51.956;12.980;2023-11-19T04:32:42;3.93;;;2.30;;
29200;SDS011;16244;51.956;12.980;2023-11-19T04:35:10;2.87;;;2.77;;
29200;SDS011;16244;51.956;12.980;2023-11-19T04:37:37;2.97;;;2.77;;
29200;SDS011;16244;51.956;12.980;2023-11-19T04:40:05;3.07;;;2.93;;
29200;SDS011;16244;51.956;12.980;2023-11-19T04:42:33;2.93;;;2.70;;
29200;SDS011;16244;51.956;12.980;2023-11-19T04:45:02;3.03;;;2.83;;
29200;SDS011;16244;51.956;12.980;2023-11-19T04:47:31;2.87;;;2.77;;
29200;SDS011;16244;51.956;12.980;2023-11-19T04:50:00;3.20;;;2.90;;
29200;SDS011;16244;51.956;12.980;2023-11-19T04:52:27;3.27;;;2.50;;
29200;SDS011;16244;51.956;12.980;2023-11-19T04:54:55;2.40;;;2.30;;
29200;SDS011;16244;51.956;12.980;2023-11-19T04:57:22;2.33;;;2.20;;
29200;SDS011;16244;51.956;12.980;2023-11-19T04:59:50;2.60;;;2.50;;
29200;SDS011;16244;51.956;12.980;2023-11-19T05:02:18;2.53;;;2.43;;
29200;SDS011;16244;51.956;12.980;2023-11-19T05:04:46;2.57;;;2.47;;
29200;SDS011;16244;51.956;12.980;2023-11-19T05:07:15;2.00;;;1.90;;
29200;SDS011;16244;51.956;12.980;2023-11-19T05:09:42;2.53;;;2.33;;
29200;SDS011;16244;51.956;12.980;2023-11-19T05:12:09;3.27;;;2.50;;
29200;SDS011;16244;51.956;12.980;2023-11-19T05:14:38;2.00;;;1.93;;
29200;SDS011;16244;51.956;12.980;2023-11-19T05:17:06;2.43;;;2.10;;
29200;SDS011;16244;51.956;12.980;2023-11-19T05:19:36;3.17;;;3.07;;
29200;SDS011;16244;51.956;12.980;2023-11-19T05:22:03;1.47;;;1.37;;
29200;SDS011;16244;51.956;12.980;2023-11-19T05:24:32;1.20;;;1.20;;
29200;SDS011;16244;51.956;12.980;2023-11-19T05:27:00;2.00;;;2.00;;
29200;SDS011;16244;51.956;12.980;2023-11-19T05:29:27;2.00;;;1.90;;
29200;SDS011;16244;51.956;12.980;2023-11-19T05:31:55;1.63;;;1.63;;
29200;SDS011;16244;51.956;12.980;2023-11-19T05:34:22;1.60;;;1.60;;
29200;SDS011;16244;51.956;12.980;2023-11-19T05:36:52;1.50;;;1.40;;
29200;SDS011;16244;51.956;12.980;2023-11-19T05:39:19;1.63;;;1.53;;
29200;SDS011;16244;51.956;12.980;2023-11-19T05:41:47;2.23;;;2.23;;
29200;SDS011;16244;51.956;12.980;2023-11-19T05:44:15;2.00;;;1.90;;
29200;SDS011;16244;51.956;12.980;2023-11-19T05:46:43;1.53;;;1.43;;
29200;SDS011;16244;51.956;12.980;2023-11-19T05:49:10;1.10;;;1.10;;
29200;SDS011;16244;51.956;12.980;2023-11-19T05:51:39;1.70;;;1.60;;
29200;SDS011;16244;51.956;12.980;2023-11-19T05:54:08;1.20;;;1.10;;
29200;SDS011;16244;51.956;12.980;2023-11-19T05:56:36;1.50;;;1.40;;
29200;SDS011;16244;51.956;12.980;2023-11-19T05:59:04;1.20;;;1.20;;
29200;SDS011;16244;51.956;12.980;2023-11-19T06:01:33;1.30;;;1.30;;
29200;SDS011;16244;51.956;12.980;2023-11-19T06:04:01;6.07;;;1.03;;
29200;SDS011;16244;51.956;12.980;2023-11-19T06:06:29;1.57;;;1.30;;
29200;SDS011;16244;51.956;12.980;2023-11-19T06:08:57;1.03;;;1.03;;
29200;SDS011;16244;51.956;12.980;2023-11-19T06:11:25;1.20;;;1.20;;
29200;SDS011;16244;51.956;12.980;2023-11-19T06:13:53;1.30;;;1.30;;
29200;SDS011;16244;51.956;12.980;2023-11-19T06:16:20;1.30;;;1.20;;
29200;SDS011;16244;51.956;12.980;2023-11-19T06:18:48;1.00;;;1.00;;
29200;SDS011;16244;51.956;12.980;2023-11-19T06:21:16;1.27;;;1.27;;
29200;SDS011;16244;51.956;12.980;2023-11-19T06:23:44;1.03;;;1.03;;
29200;SDS011;16244;51.956;12.980;2023-11-19T06:26:11;4.47;;;1.00;;
29200;SDS011;16244;51.956;12.980;2023-11-19T06:28:41;0.80;;;0.80;;
29200;SDS011;16244;51.956;12.980;2023-11-19T06:31:08;0.97;;;0.97;;
29200;SDS011;16244;51.956;12.980;2023-11-19T06:33:36;1.33;;;1.33;;
29200;SDS011;16244;51.956;12.980;2023-11-19T06:36:04;1.07;;;1.07;;
29200;SDS011;16244;51.956;12.980;2023-11-19T06:38:32;0.90;;;0.90;;
29200;SDS011;16244;51.956;12.980;2023-11-19T06:40:59;4.43;;;0.97;;
29200;SDS011;16244;51.956;12.980;2023-11-19T06:43:27;0.80;;;0.80;;
29200;SDS011;16244;51.956;12.980;2023-11-19T06:45:56;0.83;;;0.83;;
29200;SDS011;16244;51.956;12.980;2023-11-19T06:48:23;2.87;;;0.60;;
29200;SDS011;16244;51.956;12.980;2023-11-19T06:50:51;0.70;;;0.70;;
29200;SDS011;16244;51.956;12.980;2023-11-19T06:53:18;1.33;;;1.23;;
29200;SDS011;16244;51.956;12.980;2023-11-19T06:55:46;0.70;;;0.70;;
29200;SDS011;16244;51.956;12.980;2023-11-19T06:58:13;0.60;;;0.60;;
29200;SDS011;16244;51.956;12.980;2023-11-19T07:00:40;0.70;;;0.70;;
29200;SDS011;16244;51.956;12.980;2023-11-19T07:03:11;0.80;;;0.80;;
29200;SDS011;16244;51.956;12.980;2023-11-19T07:05:38;0.70;;;0.70;;
29200;SDS011;16244;51.956;12.980;2023-11-19T07:08:06;1.83;;;0.90;;
29200;SDS011;16244;51.956;12.980;2023-11-19T07:10:34;1.07;;;1.07;;
29200;SDS011;16244;51.956;12.980;2023-11-19T07:13:01;1.00;;;1.00;;
29200;SDS011;16244;51.956;12.980;2023-11-19T07:15:31;8.30;;;4.87;;
29200;SDS011;16244;51.956;12.980;2023-11-19T07:17:59;19.40;;;9.00;;
29200;SDS011;16244;51.956;12.980;2023-11-19T07:20:28;15.07;;;7.27;;
29200;SDS011;16244;51.956;12.980;2023-11-19T07:22:57;25.73;;;10.30;;
29200;SDS011;16244;51.956;12.980;2023-11-19T07:25:24;23.07;;;10.13;;
29200;SDS011;16244;51.956;12.980;2023-11-19T07:27:52;6.53;;;4.80;;
29200;SDS011;16244;51.956;12.980;2023-11-19T07:30:20;3.30;;;3.10;;
29200;SDS011;16244;51.956;12.980;2023-11-19T07:32:47;0.90;;;0.90;;
29200;SDS011;16244;51.956;12.980;2023-11-19T07:35:15;1.17;;;1.17;;
29200;SDS011;16244;51.956;12.980;2023-11-19T07:37:44;1.27;;;1.27;;
29200;SDS011;16244;51.956;12.980;2023-11-19T07:40:13;0.60;;;0.60;;
29200;SDS011;16244;51.956;12.980;2023-11-19T07:42:41;0.70;;;0.70;;
29200;SDS011;16244;51.956;12.980;2023-11-19T07:45:09;0.70;;;0.70;;
29200;SDS011;16244;51.956;12.980;2023-11-19T07:47:36;0.60;;;0.60;;
29200;SDS011;16244;51.956;12.980;2023-11-19T07:50:04;0.60;;;0.60;;
29200;SDS011;16244;51.956;12.980;2023-11-19T07:52:33;3.60;;;0.50;;
29200;SDS011;16244;51.956;12.980;2023-11-19T07:55:01;0.50;;;0.50;;
29200;SDS011;16244;51.956;12.980;2023-11-19T07:57:31;1.20;;;0.60;;
29200;SDS011;16244;51.956;12.980;2023-11-19T07:59:58;1.23;;;0.60;;
29200;SDS011;16244;51.956;12.980;2023-11-19T08:02:27;0.50;;;0.50;;
29200;SDS011;16244;51.956;12.980;2023-11-19T08:04:54;0.50;;;0.50;;
29200;SDS011;16244;51.956;12.980;2023-11-19T08:07:22;0.57;;;0.57;;
29200;SDS011;16244;51.956;12.980;2023-11-19T08:09:49;0.50;;;0.50;;
29200;SDS011;16244;51.956;12.980;2023-11-19T08:12:18;0.63;;;0.50;;
29200;SDS011;16244;51.956;12.980;2023-11-19T08:14:46;0.50;;;0.50;;
29200;SDS011;16244;51.956;12.980;2023-11-19T08:17:13;2.43;;;0.50;;
29200;SDS011;16244;51.956;12.980;2023-11-19T08:19:41;0.63;;;0.63;;
29200;SDS011;16244;51.956;12.980;2023-11-19T08:22:09;0.70;;;0.70;;
29200;SDS011;16244;51.956;12.980;2023-11-19T08:24:37;0.50;;;0.50;;
29200;SDS011;16244;51.956;12.980;2023-11-19T08:27:04;3.07;;;0.50;;
29200;SDS011;16244;51.956;12.980;2023-11-19T08:29:33;0.40;;;0.40;;
29200;SDS011;16244;51.956;12.980;2023-11-19T08:32:01;0.40;;;0.40;;
29200;SDS011;16244;51.956;12.980;2023-11-19T08:34:29;0.60;;;0.60;;
29200;SDS011;16244;51.956;12.980;2023-11-19T08:36:56;0.70;;;0.47;;
29200;SDS011;16244;51.956;12.980;2023-11-19T08:39:26;0.50;;;0.50;;
29200;SDS011;16244;51.956;12.980;2023-11-19T08:41:53;0.50;;;0.50;;
29200;SDS011;16244;51.956;12.980;2023-11-19T08:44:21;0.60;;;0.60;;
29200;SDS011;16244;51.956;12.980;2023-11-19T08:46:50;0.67;;;0.67;;
29200;SDS011;16244;51.956;12.980;2023-11-19T08:49:17;1.00;;;1.00;;
29200;SDS011;16244;51.956;12.980;2023-11-19T08:51:45;1.73;;;1.63;;
29200;SDS011;16244;51.956;12.980;2023-11-19T08:54:12;2.47;;;2.07;;
29200;SDS011;16244;51.956;12.980;2023-11-19T08:56:40;2.80;;;2.60;;
29200;SDS011;16244;51.956;12.980;2023-11-19T08:59:07;8.03;;;3.70;;
29200;SDS011;16244;51.956;12.980;2023-11-19T09:01:35;11.80;;;4.63;;
29200;SDS011;16244;51.956;12.980;2023-11-19T09:04:04;7.97;;;3.50;;
29200;SDS011;16244;51.956;12.980;2023-11-19T09:06:32;9.37;;;4.13;;
29200;SDS011;16244;51.956;12.980;2023-11-19T09:08:59;8.80;;;3.57;;
29200;SDS011;16244;51.956;12.980;2023-11-19T09:11:27;5.17;;;3.20;;
29200;SDS011;16244;51.956;12.980;2023-11-19T09:13:56;4.90;;;3.07;;
29200;SDS011;16244;51.956;12.980;2023-11-19T09:16:23;2.00;;;1.90;;
29200;SDS011;16244;51.956;12.980;2023-11-19T09:18:51;1.50;;;1.40;;
29200;SDS011;16244;51.956;12.980;2023-11-19T09:21:20;3.03;;;1.80;;
29200;SDS011;16244;51.956;12.980;2023-11-19T09:23:48;0.97;;;0.97;;
29200;SDS011;16244;51.956;12.980;2023-11-19T09:26:15;0.60;;;0.60;;
29200;SDS011;16244;51.956;12.980;2023-11-19T09:28:51;1.10;;;0.70;;
29200;SDS011;16244;51.956;12.980;2023-11-19T09:31:18;1.43;;;0.57;;
29200;SDS011;16244;51.956;12.980;2023-11-19T09:33:46;0.60;;;0.60;;
29200;SDS011;16244;51.956;12.980;2023-11-19T09:36:13;0.90;;;0.60;;
29200;SDS011;16244;51.956;12.980;2023-11-19T09:38:43;0.50;;;0.50;;
29200;SDS011;16244;51.956;12.980;2023-11-19T09:41:10;0.50;;;0.50;;
29200;SDS011;16244;51.956;12.980;2023-11-19T09:43:39;0.77;;;0.77;;
29200;SDS011;16244;51.956;12.980;2023-11-19T09:46:09;2.80;;;0.47;;
29200;SDS011;16244;51.956;12.980;2023-11-19T09:48:38;0.50;;;0.43;;
29200;SDS011;16244;51.956;12.980;2023-11-19T09:51:06;0.50;;;0.50;;
29200;SDS011;16244;51.956;12.980;2023-11-19T09:53:34;1.67;;;0.47;;
29200;SDS011;16244;51.956;12.980;2023-11-19T09:56:02;0.40;;;0.40;;
29200;SDS011;16244;51.956;12.980;2023-11-19T09:58:30;0.50;;;0.43;;
29200;SDS011;16244;51.956;12.980;2023-11-19T10:00:58;0.60;;;0.60;;
29200;SDS011;16244;51.956;12.980;2023-11-19T10:03:28;1.13;;;0.60;;
29200;SDS011;16244;51.956;12.980;2023-11-19T10:06:00;0.40;;;0.40;;
29200;SDS011;16244;51.956;12.980;2023-11-19T10:08:28;0.50;;;0.50;;
29200;SDS011;16244;51.956;12.980;2023-11-19T10:10:56;0.40;;;0.40;;
29200;SDS011;16244;51.956;12.980;2023-11-19T10:13:25;0.50;;;0.50;;
29200;SDS011;16244;51.956;12.980;2023-11-19T10:15:53;0.50;;;0.40;;
29200;SDS011;16244;51.956;12.980;2023-11-19T10:18:23;1.67;;;0.50;;
29200;SDS011;16244;51.956;12.980;2023-11-19T10:20:53;0.87;;;0.53;;
29200;SDS011;16244;51.956;12.980;2023-11-19T10:23:21;1.37;;;0.70;;
29200;SDS011;16244;51.956;12.980;2023-11-19T10:25:49;1.70;;;0.60;;
29200;SDS011;16244;51.956;12.980;2023-11-19T10:28:20;1.37;;;0.50;;
29200;SDS011;16244;51.956;12.980;2023-11-19T10:30:47;1.93;;;1.73;;
29200;SDS011;16244;51.956;12.980;2023-11-19T10:33:15;5.40;;;2.37;;
29200;SDS011;16244;51.956;12.980;2023-11-19T10:35:53;10.13;;;4.37;;
29200;SDS011;16244;51.956;12.980;2023-11-19T10:38:22;1.60;;;1.03;;
29200;SDS011;16244;51.956;12.980;2023-11-19T10:40:51;2.07;;;0.70;;
29200;SDS011;16244;51.956;12.980;2023-11-19T10:43:20;3.40;;;0.73;;
29200;SDS011;16244;51.956;12.980;2023-11-19T10:45:49;3.07;;;0.90;;
29200;SDS011;16244;51.956;12.980;2023-11-19T10:48:17;3.77;;;0.93;;
29200;SDS011;16244;51.956;12.980;2023-11-19T10:50:46;0.70;;;0.70;;
29200;SDS011;16244;51.956;12.980;2023-11-19T10:53:17;3.27;;;2.00;;
29200;SDS011;16244;51.956;12.980;2023-11-19T10:55:47;3.47;;;1.13;;
29200;SDS011;16244;51.956;12.980;2023-11-19T10:58:15;1.50;;;0.90;;
29200;SDS011;16244;51.956;12.980;2023-11-19T11:00:44;2.53;;;1.43;;
29200;SDS011;16244;51.956;12.980;2023-11-19T11:03:18;1.33;;;0.90;;
29200;SDS011;16244;51.956;12.980;2023-11-19T11:05:48;4.30;;;0.93;;
29200;SDS011;16244;51.956;12.980;2023-11-19T11:08:18;1.23;;;1.13;;
29200;SDS011;16244;51.956;12.980;2023-11-19T11:10:48;6.17;;;1.13;;
29200;SDS011;16244;51.956;12.980;2023-11-19T11:13:19;10.33;;;0.97;;
29200;SDS011;16244;51.956;12.980;2023-11-19T11:15:49;4.03;;;0.67;;
29200;SDS011;16244;51.956;12.980;2023-11-19T11:18:17;5.00;;;0.80;;
29200;SDS011;16244;51.956;12.980;2023-11-19T11:20:45;3.07;;;0.70;;
29200;SDS011;16244;51.956;12.980;2023-11-19T11:23:28;1.90;;;0.77;;
29200;SDS011;16244;51.956;12.980;2023-11-19T11:29:20;0.77;;;0.67;;
29200;SDS011;16244;51.956;12.980;2023-11-19T11:31:57;1.37;;;0.70;;
29200;SDS011;16244;51.956;12.980;2023-11-19T11:34:48;4.97;;;0.60;;
29200;SDS011;16244;51.956;12.980;2023-11-19T11:37:25;1.27;;;0.80;;
29200;SDS011;16244;51.956;12.980;2023-11-19T11:40:00;1.13;;;1.00;;
29200;SDS011;16244;51.956;12.980;2023-11-19T11:42:34;2.77;;;1.03;;
29200;SDS011;16244;51.956;12.980;2023-11-19T11:45:02;1.77;;;1.30;;
29200;SDS011;16244;51.956;12.980;2023-11-19T11:50:47;3.23;;;0.70;;
29200;SDS011;16244;51.956;12.980;2023-11-19T11:53:16;3.17;;;1.90;;
29200;SDS011;16244;51.956;12.980;2023-11-19T11:55:53;2.30;;;0.83;;
29200;SDS011;16244;51.956;12.980;2023-11-19T11:58:25;3.47;;;0.80;;
29200;SDS011;16244;51.956;12.980;2023-11-19T12:00:54;2.33;;;0.97;;
29200;SDS011;16244;51.956;12.980;2023-11-19T12:03:26;4.23;;;0.70;;
29200;SDS011;16244;51.956;12.980;2023-11-19T12:05:55;3.07;;;1.13;;
29200;SDS011;16244;51.956;12.980;2023-11-19T12:08:24;2.03;;;0.60;;
29200;SDS011;16244;51.956;12.980;2023-11-19T12:10:55;2.37;;;1.00;;
29200;SDS011;16244;51.956;12.980;2023-11-19T12:13:25;4.83;;;0.80;;
29200;SDS011;16244;51.956;12.980;2023-11-19T12:16:10;4.60;;;1.67;;
29200;SDS011;16244;51.956;12.980;2023-11-19T12:18:39;3.77;;;1.40;;
29200;SDS011;16244;51.956;12.980;2023-11-19T12:21:09;3.70;;;1.80;;
29200;SDS011;16244;51.956;12.980;2023-11-19T12:23:44;3.73;;;1.40;;
29200;SDS011;16244;51.956;12.980;2023-11-19T12:26:22;1.17;;;1.07;;
29200;SDS011;16244;51.956;12.980;2023-11-19T12:29:02;6.90;;;1.70;;
29200;SDS011;16244;51.956;12.980;2023-11-19T12:31:33;5.00;;;1.00;;
29200;SDS011;16244;51.956;12.980;2023-11-19T12:34:07;6.10;;;1.57;;
29200;SDS011;16244;51.956;12.980;2023-11-19T12:36:39;3.40;;;1.10;;
29200;SDS011;16244;51.956;12.980;2023-11-19T12:39:08;11.30;;;1.43;;
29200;SDS011;16244;51.956;12.980;2023-11-19T12:41:52;6.37;;;1.33;;
29200;SDS011;16244;51.956;12.980;2023-11-19T12:44:20;7.50;;;1.40;;
29200;SDS011;16244;51.956;12.980;2023-11-19T12:47:01;5.17;;;1.53;;
29200;SDS011;16244;51.956;12.980;2023-11-19T12:49:30;8.20;;;2.30;;
29200;SDS011;16244;51.956;12.980;2023-11-19T12:51:57;11.00;;;1.80;;
29200;SDS011;16244;51.956;12.980;2023-11-19T12:54:32;2.53;;;1.90;;
29200;SDS011;16244;51.956;12.980;2023-11-19T12:57:02;13.03;;;1.87;;
29200;SDS011;16244;51.956;12.980;2023-11-19T12:59:31;5.20;;;1.30;;
29200;SDS011;16244;51.956;12.980;2023-11-19T13:01:59;7.40;;;1.93;;
29200;SDS011;16244;51.956;12.980;2023-11-19T13:04:28;4.03;;;1.23;;
29200;SDS011;16244;51.956;12.980;2023-11-19T13:06:57;3.40;;;1.43;;
29200;SDS011;16244;51.956;12.980;2023-11-19T13:09:26;10.40;;;1.83;;
29200;SDS011;16244;51.956;12.980;2023-11-19T13:11:54;2.43;;;1.50;;
29200;SDS011;16244;51.956;12.980;2023-11-19T13:14:24;9.20;;;1.50;;
29200;SDS011;16244;51.956;12.980;2023-11-19T13:17:03;1.87;;;1.40;;
29200;SDS011;16244;51.956;12.980;2023-11-19T13:19:31;5.43;;;1.50;;
29200;SDS011;16244;51.956;12.980;2023-11-19T13:21:58;6.73;;;1.10;;
29200;SDS011;16244;51.956;12.980;2023-11-19T13:24:26;3.07;;;1.10;;
29200;SDS011;16244;51.956;12.980;2023-11-19T13:26:53;7.80;;;1.67;;
29200;SDS011;16244;51.956;12.980;2023-11-19T13:29:21;1.60;;;0.97;;
29200;SDS011;16244;51.956;12.980;2023-11-19T13:31:50;5.10;;;1.13;;
29200;SDS011;16244;51.956;12.980;2023-11-19T13:34:18;4.97;;;1.20;;
29200;SDS011;16244;51.956;12.980;2023-11-19T13:36:45;6.43;;;1.37;;
29200;SDS011;16244;51.956;12.980;2023-11-19T13:39:13;5.73;;;1.63;;
29200;SDS011;16244;51.956;12.980;2023-11-19T13:41:48;4.47;;;1.40;;
29200;SDS011;16244;51.956;12.980;2023-11-19T13:44:16;11.40;;;1.70;;
29200;SDS011;16244;51.956;12.980;2023-11-19T13:46:45;7.20;;;1.50;;
29200;SDS011;16244;51.956;12.980;2023-11-19T13:49:13;7.83;;;1.40;;
29200;SDS011;16244;51.956;12.980;2023-11-19T13:51:41;7.87;;;1.50;;
29200;SDS011;16244;51.956;12.980;2023-11-19T13:54:08;2.47;;;1.60;;
29200;SDS011;16244;51.956;12.980;2023-11-19T13:56:36;3.90;;;1.13;;
29200;SDS011;16244;51.956;12.980;2023-11-19T13:59:03;6.17;;;1.87;;
29200;SDS011;16244;51.956;12.980;2023-11-19T14:01:31;11.33;;;1.60;;
29200;SDS011;16244;51.956;12.980;2023-11-19T14:04:00;4.63;;;2.10;;
29200;SDS011;16244;51.956;12.980;2023-11-19T14:06:27;7.60;;;3.40;;
29200;SDS011;16244;51.956;12.980;2023-11-19T14:08:55;9.10;;;1.47;;
29200;SDS011;16244;51.956;12.980;2023-11-19T14:11:23;8.03;;;1.67;;
29200;SDS011;16244;51.956;12.980;2023-11-19T14:13:50;4.10;;;1.53;;
29200;SDS011;16244;51.956;12.980;2023-11-19T14:16:18;10.93;;;2.20;;
29200;SDS011;16244;51.956;12.980;2023-11-19T14:18:45;10.07;;;1.37;;
29200;SDS011;16244;51.956;12.980;2023-11-19T14:21:16;4.53;;;1.57;;
29200;SDS011;16244;51.956;12.980;2023-11-19T14:23:43;3.43;;;1.37;;
29200;SDS011;16244;51.956;12.980;2023-11-19T14:26:11;9.33;;;1.77;;
29200;SDS011;16244;51.956;12.980;2023-11-19T14:28:39;6.60;;;2.73;;
29200;SDS011;16244;51.956;12.980;2023-11-19T14:31:06;10.20;;;2.77;;
29200;SDS011;16244;51.956;12.980;2023-11-19T14:33:34;4.10;;;2.20;;
29200;SDS011;16244;51.956;12.980;2023-11-19T14:36:02;6.67;;;1.47;;
29200;SDS011;16244;51.956;12.980;2023-11-19T14:38:31;7.80;;;1.90;;
29200;SDS011;16244;51.956;12.980;2023-11-19T14:40:58;9.47;;;2.90;;
29200;SDS011;16244;51.956;12.980;2023-11-19T14:43:26;12.97;;;1.70;;
29200;SDS011;16244;51.956;12.980;2023-11-19T14:45:54;6.27;;;1.63;;
29200;SDS011;16244;51.956;12.980;2023-11-19T14:48:21;5.50;;;1.40;;